| time (UTC) | temp F | wind direction | speed MPH | gust MPH | rain 1hr in | rain 24hr in | rain mn in | humidity % | barometer mb |
| 20260506143054 | 75 | 234 | 6.0 | 11.0 | 0.00 | 0.00 | 0.00 | 47 | 1013.9 |
| 20260506141548 | 76 | 227 | 3.0 | 10.0 | 0.00 | 0.00 | 0.00 | 47 | 1013.9 |
| 20260506140044 | 76 | 232 | 4.0 | 12.0 | 0.00 | 0.00 | 0.00 | 48 | 1014.0 |
| 20260506134541 | 76 | 217 | 5.0 | 11.0 | 0.00 | 0.00 | 0.00 | 45 | 1013.9 |
| 20260506133039 | 76 | 223 | 4.0 | 11.0 | 0.00 | 0.00 | 0.00 | 45 | 1014.0 |
| 20260506131541 | 77 | 209 | 4.0 | 9.0 | 0.00 | 0.00 | 0.00 | 43 | 1014.2 |
| 20260506130037 | 77 | 162 | 4.0 | 8.0 | 0.00 | 0.00 | 0.00 | 44 | 1014.2 |
| 20260506124535 | 77 | 221 | 4.0 | 11.0 | 0.00 | 0.00 | 0.00 | 42 | 1014.4 |
| 20260506123034 | 77 | 183 | 3.0 | 8.0 | 0.00 | 0.00 | 0.00 | 43 | 1014.5 |
| 20260506121533 | 77 | 181 | 4.0 | 11.0 | 0.00 | 0.00 | 0.00 | 44 | 1014.6 |
| 20260506120037 | 76 | 165 | 4.0 | 11.0 | 0.00 | 0.00 | 0.00 | 45 | 1014.7 |
| 20260506114531 | 76 | 229 | 6.0 | 12.0 | 0.00 | 0.00 | 0.00 | 44 | 1014.9 |
| 20260506113038 | 76 | 188 | 4.0 | 8.0 | 0.00 | 0.00 | 0.00 | 44 | 1014.9 |
| 20260506111510 | 76 | 169 | 3.0 | 9.0 | 0.00 | 0.00 | 0.00 | 43 | 1015.1 |
| 20260506110011 | 76 | 233 | 6.0 | 11.0 | 0.00 | 0.00 | 0.00 | 40 | 1015.1 |
| 20260506104506 | 76 | 238 | 6.0 | 11.0 | 0.00 | 0.00 | 0.00 | 40 | 1015.0 |
| 20260506103008 | 76 | 196 | 4.0 | 11.0 | 0.00 | 0.00 | 0.00 | 41 | 1015.1 |
| 20260506101502 | 76 | 205 | 5.0 | 11.0 | 0.00 | 0.00 | 0.00 | 41 | 1015.2 |
| 20260506100001 | 76 | 200 | 4.0 | 12.0 | 0.00 | 0.00 | 0.00 | 40 | 1015.4 |
| 20260506094601 | 76 | 207 | 5.0 | 10.0 | 0.00 | 0.00 | 0.00 | 37 | 1015.5 |
| 20260506093055 | 75 | 250 | 2.0 | 8.0 | 0.00 | 0.00 | 0.00 | 37 | 1015.4 |
| 20260506091558 | 75 | 217 | 3.0 | 7.0 | 0.00 | 0.00 | 0.00 | 40 | 1015.6 |
| 20260506090056 | 74 | 217 | 4.0 | 7.0 | 0.00 | 0.00 | 0.00 | 39 | 1015.6 |
| 20260506084550 | 73 | 221 | 3.0 | 10.0 | 0.00 | 0.00 | 0.00 | 43 | 1015.6 |
| 20260506083041 | 73 | 222 | 6.0 | 8.0 | 0.00 | 0.00 | 0.00 | 45 | 1015.4 |
| 20260506081537 | 73 | 229 | 4.0 | 9.0 | 0.00 | 0.00 | 0.00 | 49 | 1015.4 |
| 20260506073026 | 72 | 252 | 3.0 | 7.0 | 0.00 | 0.00 | 0.00 | 47 | 1015.3 |
| 20260506071522 | 71 | 228 | 0.0 | 4.0 | 0.00 | 0.00 | 0.00 | 50 | 1015.2 |
| 20260506061506 | 66 | 280 | 0.0 | 2.0 | 0.00 | 0.00 | 0.00 | 57 | 1015.5 |
| 20260506050104 | 60 | 336 | 0.0 | 1.0 | 0.00 | 0.00 | 0.00 | 67 | 1015.5 |
| 20260506044554 | 59 | 96 | 0.0 | 2.0 | 0.00 | 0.00 | 0.00 | 68 | 1015.5 |
| 20260506043048 | 57 | 73 | 0.0 | 0.0 | 0.00 | 0.00 | 0.00 | 71 | 1015.4 |
| 20260506041544 | 56 | 73 | 0.0 | 2.0 | 0.00 | 0.00 | 0.00 | 71 | 1015.3 |
| 20260506040029 | 55 | 73 | 0.0 | 0.0 | 0.00 | 0.00 | 0.00 | 71 | 1015.1 |
| 20260506034528 | 56 | 73 | 0.0 | 0.0 | 0.00 | 0.00 | 0.00 | 70 | 1014.9 |
| 20260506033014 | 56 | 73 | 0.0 | 0.0 | 0.00 | 0.00 | 0.00 | 69 | 1014.9 |
| 20260506031513 | 56 | 73 | 0.0 | 2.0 | 0.00 | 0.00 | 0.00 | 69 | 1014.9 |
| 20260506030026 | 56 | 66 | 1.0 | 4.0 | 0.00 | 0.00 | 0.00 | 68 | 1014.8 |
| 20260506024520 | 56 | 98 | 0.0 | 0.0 | 0.00 | 0.00 | 0.00 | 67 | 1014.9 |
| 20260506023047 | 57 | 148 | 0.0 | 0.0 | 0.00 | 0.00 | 0.00 | 68 | 1014.8 |
| 20260506021544 | 57 | 173 | 0.0 | 0.0 | 0.00 | 0.00 | 0.00 | 66 | 1014.9 |
| 20260506020043 | 57 | 173 | 0.0 | 0.0 | 0.00 | 0.00 | 0.00 | 65 | 1014.9 |
| 20260506014540 | 58 | 215 | 0.0 | 0.0 | 0.00 | 0.00 | 0.00 | 66 | 1014.7 |
| 20260506013053 | 58 | 215 | 0.0 | 0.0 | 0.00 | 0.00 | 0.00 | 63 | 1014.7 |
| 20260506011535 | 59 | 213 | 0.0 | 0.0 | 0.00 | 0.00 | 0.00 | 61 | 1014.7 |
| 20260506010032 | 59 | 196 | 0.0 | 2.0 | 0.00 | 0.00 | 0.00 | 61 | 1014.7 |
| 20260506004532 | 60 | 195 | 1.0 | 3.0 | 0.00 | 0.00 | 0.00 | 59 | 1014.6 |
| 20260506003033 | 61 | 92 | 0.0 | 0.0 | 0.00 | 0.00 | 0.00 | 58 | 1014.5 |
| 20260506001526 | 61 | 92 | 0.0 | 2.0 | 0.00 | 0.00 | 0.00 | 58 | 1014.5 |
| 20260506000022 | 62 | 80 | 0.0 | 0.0 | 0.00 | 0.00 | 0.00 | 57 | 1014.4 |
| 20260505234527 | 62 | 80 | 0.0 | 2.0 | 0.00 | 0.00 | 0.00 | 56 | 1014.4 |
| 20260505233021 | 62 | 328 | 0.0 | 2.0 | 0.00 | 0.00 | 0.00 | 56 | 1014.4 |
| 20260505231519 | 63 | 328 | 0.0 | 2.0 | 0.00 | 0.00 | 0.00 | 56 | 1014.5 |
| 20260505230034 | 63 | 25 | 0.0 | 1.0 | 0.00 | 0.00 | 0.00 | 56 | 1014.4 |
| 20260505224515 | 63 | 321 | 1.0 | 3.0 | 0.00 | 0.00 | 0.00 | 56 | 1014.5 |
| 20260505223014 | 63 | 211 | 0.0 | 1.0 | 0.00 | 0.00 | 0.00 | 56 | 1014.6 |
| 20260505221512 | 64 | 240 | 0.0 | 3.0 | 0.00 | 0.00 | 0.00 | 57 | 1014.4 |
| 20260505220010 | 64 | 222 | 0.0 | 4.0 | 0.00 | 0.00 | 0.00 | 56 | 1014.3 |
| 20260505214510 | 64 | 126 | 0.0 | 5.0 | 0.00 | 0.00 | 0.00 | 56 | 1014.3 |
| 20260505213007 | 64 | 196 | 1.0 | 4.0 | 0.00 | 0.00 | 0.00 | 57 | 1014.2 |
| 20260505211506 | 65 | 242 | 0.0 | 4.0 | 0.00 | 0.00 | 0.00 | 58 | 1014.2 |
| 20260505210004 | 65 | 71 | 1.0 | 10.0 | 0.00 | 0.00 | 0.00 | 58 | 1014.1 |
| 20260505204504 | 65 | 133 | 4.0 | 11.0 | 0.00 | 0.00 | 0.00 | 59 | 1014.0 |
| 20260505203002 | 65 | 51 | 3.0 | 11.0 | 0.00 | 0.00 | 0.00 | 58 | 1014.0 |
| 20260505201504 | 65 | 84 | 2.0 | 9.0 | 0.00 | 0.00 | 0.00 | 56 | 1013.9 |
| 20260505200005 | 66 | 93 | 2.0 | 10.0 | 0.00 | 0.00 | 0.00 | 56 | 1013.7 |
| 20260505194614 | 66 | 111 | 1.0 | 4.0 | 0.00 | 0.00 | 0.00 | 52 | 1013.6 |
| 20260505193059 | 67 | 65 | 0.0 | 0.0 | 0.00 | 0.00 | 0.00 | 48 | 1013.5 |
| 20260505191601 | 67 | 65 | 0.0 | 3.0 | 0.00 | 0.00 | 0.00 | 47 | 1013.3 |
| 20260505190058 | 68 | 82 | 0.0 | 3.0 | 0.00 | 0.00 | 0.00 | 47 | 1013.2 |
| 20260505184558 | 69 | 74 | 1.0 | 4.0 | 0.00 | 0.00 | 0.00 | 46 | 1013.0 |
| 20260505183102 | 70 | 85 | 0.0 | 5.0 | 0.00 | 0.00 | 0.00 | 43 | 1013.0 |
| 20260505181557 | 71 | 60 | 2.0 | 6.0 | 0.00 | 0.00 | 0.00 | 37 | 1012.8 |
| 20260505180058 | 72 | 57 | 1.0 | 4.0 | 0.00 | 0.00 | 0.00 | 37 | 1012.7 |
| 20260505174559 | 73 | 51 | 0.0 | 3.0 | 0.00 | 0.00 | 0.00 | 36 | 1012.5 |
| 20260505173056 | 74 | 165 | 0.0 | 2.0 | 0.00 | 0.00 | 0.00 | 34 | 1012.5 |
| 20260505171555 | 75 | 180 | 0.0 | 3.0 | 0.00 | 0.00 | 0.00 | 34 | 1012.4 |
| 20260505170054 | 76 | 192 | 1.0 | 8.0 | 0.00 | 0.00 | 0.00 | 33 | 1012.4 |
| 20260505164601 | 76 | 158 | 1.0 | 8.0 | 0.00 | 0.00 | 0.00 | 33 | 1012.4 |
| 20260505163059 | 77 | 193 | 4.0 | 10.0 | 0.00 | 0.00 | 0.00 | 32 | 1012.4 |
| 20260505161552 | 77 | 241 | 5.0 | 10.0 | 0.00 | 0.00 | 0.00 | 31 | 1012.3 |
| 20260505153106 | 80 | 221 | 4.0 | 14.0 | 0.00 | 0.00 | 0.00 | 28 | 1012.5 |
| 20260505151556 | 80 | 233 | 5.0 | 9.0 | 0.00 | 0.00 | 0.00 | 26 | 1012.7 |